sensor_id;sensor_type;location;lat;lon;timestamp;pressure;altitude;pressure_sealevel;temperature;humidity
19748;BME280;10032;51.386;12.516;2023-04-07T00:01:31;100445.16;;;4.10;89.30
19748;BME280;10032;51.386;12.516;2023-04-07T00:03:56;100452.16;;;4.04;89.71
19748;BME280;10032;51.386;12.516;2023-04-07T00:06:22;100440.56;;;3.97;89.91
19748;BME280;10032;51.386;12.516;2023-04-07T00:08:47;100448.00;;;3.95;90.42
19748;BME280;10032;51.386;12.516;2023-04-07T00:11:13;100450.22;;;3.85;91.23
19748;BME280;10032;51.386;12.516;2023-04-07T00:13:38;100452.44;;;3.75;91.01
19748;BME280;10032;51.386;12.516;2023-04-07T00:16:03;100450.69;;;3.61;91.71
19748;BME280;10032;51.386;12.516;2023-04-07T00:18:29;100453.16;;;3.56;92.10
19748;BME280;10032;51.386;12.516;2023-04-07T00:20:55;100448.34;;;3.45;92.85
19748;BME280;10032;51.386;12.516;2023-04-07T00:23:20;100449.34;;;3.44;94.04
19748;BME280;10032;51.386;12.516;2023-04-07T00:25:47;100439.44;;;3.38;94.55
19748;BME280;10032;51.386;12.516;2023-04-07T00:28:12;100445.19;;;3.35;95.28
19748;BME280;10032;51.386;12.516;2023-04-07T00:30:37;100437.16;;;3.35;95.89
19748;BME280;10032;51.386;12.516;2023-04-07T00:33:03;100430.13;;;3.34;95.32
19748;BME280;10032;51.386;12.516;2023-04-07T00:35:28;100436.16;;;3.36;96.57
19748;BME280;10032;51.386;12.516;2023-04-07T00:37:54;100430.53;;;3.31;95.98
19748;BME280;10032;51.386;12.516;2023-04-07T00:40:19;100428.25;;;3.28;96.26
19748;BME280;10032;51.386;12.516;2023-04-07T00:42:45;100430.31;;;3.26;97.83
19748;BME280;10032;51.386;12.516;2023-04-07T00:45:10;100429.88;;;3.23;97.49
19748;BME280;10032;51.386;12.516;2023-04-07T00:47:37;100429.44;;;3.19;97.61
19748;BME280;10032;51.386;12.516;2023-04-07T00:50:03;100427.75;;;3.18;98.90
19748;BME280;10032;51.386;12.516;2023-04-07T00:52:31;100427.53;;;3.13;98.06
19748;BME280;10032;51.386;12.516;2023-04-07T00:54:58;100421.91;;;3.02;98.71
19748;BME280;10032;51.386;12.516;2023-04-07T00:57:24;100424.75;;;3.00;98.44
19748;BME280;10032;51.386;12.516;2023-04-07T00:59:53;100422.47;;;2.97;99.39
19748;BME280;10032;51.386;12.516;2023-04-07T01:02:25;100424.88;;;2.92;99.46
19748;BME280;10032;51.386;12.516;2023-04-07T01:05:38;100419.28;;;2.87;100.00
19748;BME280;10032;51.386;12.516;2023-04-07T01:11:19;100406.91;;;2.80;100.00
19748;BME280;10032;51.386;12.516;2023-04-07T01:13:49;100411.16;;;2.74;100.00
19748;BME280;10032;51.386;12.516;2023-04-07T01:16:48;100407.63;;;2.67;100.00
19748;BME280;10032;51.386;12.516;2023-04-07T01:19:47;100403.72;;;2.70;100.00
19748;BME280;10032;51.386;12.516;2023-04-07T01:22:20;100398.56;;;2.68;100.00
19748;BME280;10032;51.386;12.516;2023-04-07T01:30:11;100397.69;;;2.61;100.00
19748;BME280;10032;51.386;12.516;2023-04-07T01:32:38;100396.69;;;2.62;100.00
19748;BME280;10032;51.386;12.516;2023-04-07T01:35:06;100394.38;;;2.59;100.00
19748;BME280;10032;51.386;12.516;2023-04-07T01:37:35;100387.75;;;2.55;100.00
19748;BME280;10032;51.386;12.516;2023-04-07T01:40:03;100377.81;;;2.49;100.00
19748;BME280;10032;51.386;12.516;2023-04-07T01:42:30;100386.63;;;2.43;100.00
19748;BME280;10032;51.386;12.516;2023-04-07T01:44:57;100386.00;;;2.41;100.00
19748;BME280;10032;51.386;12.516;2023-04-07T01:47:26;100390.50;;;2.41;100.00
19748;BME280;10032;51.386;12.516;2023-04-07T01:49:56;100383.31;;;2.41;100.00
19748;BME280;10032;51.386;12.516;2023-04-07T01:52:22;100381.41;;;2.35;100.00
19748;BME280;10032;51.386;12.516;2023-04-07T01:54:48;100374.78;;;2.31;100.00
19748;BME280;10032;51.386;12.516;2023-04-07T01:57:14;100374.78;;;2.31;100.00
19748;BME280;10032;51.386;12.516;2023-04-07T01:59:40;100384.47;;;2.32;100.00
19748;BME280;10032;51.386;12.516;2023-04-07T02:02:05;100378.84;;;2.27;100.00
19748;BME280;10032;51.386;12.516;2023-04-07T02:04:36;100377.97;;;2.20;100.00
19748;BME280;10032;51.386;12.516;2023-04-07T02:07:15;100379.19;;;2.18;100.00
19748;BME280;10032;51.386;12.516;2023-04-07T02:09:43;100382.81;;;2.10;100.00
19748;BME280;10032;51.386;12.516;2023-04-07T02:12:12;100376.00;;;2.08;100.00
19748;BME280;10032;51.386;12.516;2023-04-07T02:14:39;100377.00;;;2.07;100.00
19748;BME280;10032;51.386;12.516;2023-04-07T02:17:05;100370.03;;;2.06;100.00
19748;BME280;10032;51.386;12.516;2023-04-07T02:19:32;100369.81;;;2.07;100.00
19748;BME280;10032;51.386;12.516;2023-04-07T02:22:02;100367.13;;;2.07;100.00
19748;BME280;10032;51.386;12.516;2023-04-07T02:24:27;100372.69;;;2.06;100.00
19748;BME280;10032;51.386;12.516;2023-04-07T02:26:53;100378.75;;;2.00;100.00
19748;BME280;10032;51.386;12.516;2023-04-07T02:29:18;100370.31;;;1.96;100.00
19748;BME280;10032;51.386;12.516;2023-04-07T02:31:44;100376.09;;;2.00;100.00
19748;BME280;10032;51.386;12.516;2023-04-07T02:34:09;100373.63;;;1.98;100.00
19748;BME280;10032;51.386;12.516;2023-04-07T02:36:35;100371.16;;;1.97;100.00
19748;BME280;10032;51.386;12.516;2023-04-07T02:39:00;100372.34;;;1.94;100.00
19748;BME280;10032;51.386;12.516;2023-04-07T02:41:26;100373.63;;;1.98;100.00
19748;BME280;10032;51.386;12.516;2023-04-07T02:43:52;100369.28;;;1.97;100.00
19748;BME280;10032;51.386;12.516;2023-04-07T02:46:17;100361.28;;;1.97;100.00
19748;BME280;10032;51.386;12.516;2023-04-07T02:48:43;100369.09;;;1.99;100.00
19748;BME280;10032;51.386;12.516;2023-04-07T02:51:08;100369.53;;;2.02;100.00
19748;BME280;10032;51.386;12.516;2023-04-07T02:53:33;100374.53;;;2.05;100.00
19748;BME280;10032;51.386;12.516;2023-04-07T02:55:59;100362.19;;;2.04;100.00
19748;BME280;10032;51.386;12.516;2023-04-07T02:58:25;100354.19;;;2.04;100.00
19748;BME280;10032;51.386;12.516;2023-04-07T03:00:50;100358.50;;;2.05;100.00
19748;BME280;10032;51.386;12.516;2023-04-07T03:03:15;100352.78;;;2.08;100.00
19748;BME280;10032;51.386;12.516;2023-04-07T03:05:41;100354.44;;;2.09;100.00
19748;BME280;10032;51.386;12.516;2023-04-07T03:08:06;100353.78;;;2.07;100.00
19748;BME280;10032;51.386;12.516;2023-04-07T03:10:32;100361.16;;;2.05;100.00
19748;BME280;10032;51.386;12.516;2023-04-07T03:12:57;100344.50;;;2.03;100.00
19748;BME280;10032;51.386;12.516;2023-04-07T03:15:23;100350.59;;;1.97;100.00
19748;BME280;10032;51.386;12.516;2023-04-07T03:17:48;100352.25;;;1.98;100.00
19748;BME280;10032;51.386;12.516;2023-04-07T03:20:14;100348.31;;;1.94;100.00
19748;BME280;10032;51.386;12.516;2023-04-07T03:22:39;100355.66;;;1.92;100.00
19748;BME280;10032;51.386;12.516;2023-04-07T03:25:05;100357.97;;;1.95;100.00
19748;BME280;10032;51.386;12.516;2023-04-07T03:27:31;100360.63;;;1.95;100.00
19748;BME280;10032;51.386;12.516;2023-04-07T03:29:56;100359.63;;;1.96;100.00
19748;BME280;10032;51.386;12.516;2023-04-07T03:32:22;100358.41;;;1.99;100.00
19748;BME280;10032;51.386;12.516;2023-04-07T03:34:47;100353.06;;;1.99;100.00
19748;BME280;10032;51.386;12.516;2023-04-07T03:37:13;100362.94;;;1.98;100.00
19748;BME280;10032;51.386;12.516;2023-04-07T03:39:38;100357.34;;;1.93;100.00
19748;BME280;10032;51.386;12.516;2023-04-07T03:42:05;100358.34;;;1.92;100.00
19748;BME280;10032;51.386;12.516;2023-04-07T03:44:30;100357.72;;;1.90;100.00
19748;BME280;10032;51.386;12.516;2023-04-07T03:46:56;100357.72;;;1.90;100.00
19748;BME280;10032;51.386;12.516;2023-04-07T03:49:22;100361.22;;;1.91;100.00
19748;BME280;10032;51.386;12.516;2023-04-07T03:51:47;100348.69;;;1.91;100.00
19748;BME280;10032;51.386;12.516;2023-04-07T03:54:13;100342.31;;;1.92;100.00
19748;BME280;10032;51.386;12.516;2023-04-07T03:56:38;100346.00;;;1.91;100.00
19748;BME280;10032;51.386;12.516;2023-04-07T03:59:04;100354.41;;;1.88;100.00
19748;BME280;10032;51.386;12.516;2023-04-07T04:01:29;100347.78;;;1.84;100.00
19748;BME280;10032;51.386;12.516;2023-04-07T04:03:55;100345.69;;;1.80;100.00
19748;BME280;10032;51.386;12.516;2023-04-07T04:06:21;100354.91;;;1.77;100.00
19748;BME280;10032;51.386;12.516;2023-04-07T04:08:46;100348.28;;;1.73;100.00
19748;BME280;10032;51.386;12.516;2023-04-07T04:11:12;100344.72;;;1.66;100.00
19748;BME280;10032;51.386;12.516;2023-04-07T04:13:37;100351.63;;;1.61;100.00
19748;BME280;10032;51.386;12.516;2023-04-07T04:16:03;100356.34;;;1.59;100.00
19748;BME280;10032;51.386;12.516;2023-04-07T04:18:28;100348.50;;;1.57;100.00
19748;BME280;10032;51.386;12.516;2023-04-07T04:20:54;100344.81;;;1.58;100.00
19748;BME280;10032;51.386;12.516;2023-04-07T04:23:20;100352.56;;;1.53;100.00
19748;BME280;10032;51.386;12.516;2023-04-07T04:25:45;100353.66;;;1.44;100.00
19748;BME280;10032;51.386;12.516;2023-04-07T04:28:10;100350.00;;;1.45;100.00
19748;BME280;10032;51.386;12.516;2023-04-07T04:30:36;100360.84;;;1.44;100.00
19748;BME280;10032;51.386;12.516;2023-04-07T04:33:01;100355.06;;;1.40;100.00
19748;BME280;10032;51.386;12.516;2023-04-07T04:35:27;100356.91;;;1.40;100.00
19748;BME280;10032;51.386;12.516;2023-04-07T04:37:53;100358.56;;;1.41;100.00
19748;BME280;10032;51.386;12.516;2023-04-07T04:40:18;100357.06;;;1.38;100.00
19748;BME280;10032;51.386;12.516;2023-04-07T04:42:43;100358.44;;;1.34;100.00
19748;BME280;10032;51.386;12.516;2023-04-07T04:45:09;100351.91;;;1.37;100.00
19748;BME280;10032;51.386;12.516;2023-04-07T04:47:35;100356.72;;;1.41;100.00
19748;BME280;10032;51.386;12.516;2023-04-07T04:50:04;100361.03;;;1.42;100.00
19748;BME280;10032;51.386;12.516;2023-04-07T04:52:30;100362.69;;;1.43;100.00
19748;BME280;10032;51.386;12.516;2023-04-07T04:54:55;100362.69;;;1.43;100.00
19748;BME280;10032;51.386;12.516;2023-04-07T04:57:21;100369.66;;;1.44;100.00
19748;BME280;10032;51.386;12.516;2023-04-07T04:59:46;100358.19;;;1.44;100.00
19748;BME280;10032;51.386;12.516;2023-04-07T05:02:11;100366.38;;;1.42;100.00
19748;BME280;10032;51.386;12.516;2023-04-07T05:04:37;100363.72;;;1.42;100.00
19748;BME280;10032;51.386;12.516;2023-04-07T05:07:03;100360.00;;;1.43;100.00
19748;BME280;10032;51.386;12.516;2023-04-07T05:09:28;100362.69;;;1.43;100.00
19748;BME280;10032;51.386;12.516;2023-04-07T05:11:54;100367.66;;;1.46;100.00
19748;BME280;10032;51.386;12.516;2023-04-07T05:14:19;100361.94;;;1.49;100.00
19748;BME280;10032;51.386;12.516;2023-04-07T05:16:45;100365.91;;;1.53;100.00
19748;BME280;10032;51.386;12.516;2023-04-07T05:19:10;100368.84;;;1.58;100.00
19748;BME280;10032;51.386;12.516;2023-04-07T05:21:36;100373.59;;;1.63;100.00
19748;BME280;10032;51.386;12.516;2023-04-07T05:24:01;100374.91;;;1.67;100.00
19748;BME280;10032;51.386;12.516;2023-04-07T05:26:27;100374.97;;;1.73;100.00
19748;BME280;10032;51.386;12.516;2023-04-07T05:28:52;100378.28;;;1.75;100.00
19748;BME280;10032;51.386;12.516;2023-04-07T05:31:17;100366.84;;;1.81;100.00
19748;BME280;10032;51.386;12.516;2023-04-07T05:33:43;100369.78;;;1.86;100.00
19748;BME280;10032;51.386;12.516;2023-04-07T05:36:08;100373.56;;;1.92;100.00
19748;BME280;10032;51.386;12.516;2023-04-07T05:38:34;100374.13;;;1.87;100.00
19748;BME280;10032;51.386;12.516;2023-04-07T05:40:59;100370.22;;;1.90;100.00
19748;BME280;10032;51.386;12.516;2023-04-07T05:43:25;100372.28;;;1.88;100.00
19748;BME280;10032;51.386;12.516;2023-04-07T05:45:50;100377.16;;;1.84;100.00
19748;BME280;10032;51.386;12.516;2023-04-07T05:48:16;100375.13;;;1.86;100.00
19748;BME280;10032;51.386;12.516;2023-04-07T05:50:41;100371.91;;;1.91;100.00
19748;BME280;10032;51.386;12.516;2023-04-07T05:53:07;100371.06;;;1.90;100.00
19748;BME280;10032;51.386;12.516;2023-04-07T05:55:32;100370.22;;;1.90;100.00
19748;BME280;10032;51.386;12.516;2023-04-07T05:57:58;100372.53;;;1.93;100.00
19748;BME280;10032;51.386;12.516;2023-04-07T06:00:24;100375.28;;;1.99;100.00
19748;BME280;10032;51.386;12.516;2023-04-07T06:02:49;100382.34;;;2.07;100.00
19748;BME280;10032;51.386;12.516;2023-04-07T06:05:15;100370.06;;;2.12;100.00
19748;BME280;10032;51.386;12.516;2023-04-07T06:07:40;100372.63;;;2.20;100.00
19748;BME280;10032;51.386;12.516;2023-04-07T06:10:06;100373.50;;;2.27;100.00
19748;BME280;10032;51.386;12.516;2023-04-07T06:12:32;100372.13;;;2.31;100.00
19748;BME280;10032;51.386;12.516;2023-04-07T06:14:57;100366.38;;;2.34;100.00
19748;BME280;10032;51.386;12.516;2023-04-07T06:17:23;100377.91;;;2.35;100.00
19748;BME280;10032;51.386;12.516;2023-04-07T06:19:48;100375.31;;;2.41;100.00
19748;BME280;10032;51.386;12.516;2023-04-07T06:22:14;100374.38;;;2.55;100.00
19748;BME280;10032;51.386;12.516;2023-04-07T06:24:39;100381.69;;;2.68;100.00
19748;BME280;10032;51.386;12.516;2023-04-07T06:27:05;100384.66;;;2.79;100.00
19748;BME280;10032;51.386;12.516;2023-04-07T06:29:32;100376.34;;;2.95;100.00
19748;BME280;10032;51.386;12.516;2023-04-07T06:31:57;100380.63;;;3.17;100.00
19748;BME280;10032;51.386;12.516;2023-04-07T06:34:23;100371.09;;;3.42;100.00
19748;BME280;10032;51.386;12.516;2023-04-07T06:36:48;100372.84;;;3.69;100.00
19748;BME280;10032;51.386;12.516;2023-04-07T06:39:13;100372.16;;;4.01;100.00
19748;BME280;10032;51.386;12.516;2023-04-07T06:41:39;100369.50;;;4.21;100.00
19748;BME280;10032;51.386;12.516;2023-04-07T06:44:07;100373.47;;;4.51;100.00
19748;BME280;10032;51.386;12.516;2023-04-07T06:46:33;100363.38;;;4.85;100.00
19748;BME280;10032;51.386;12.516;2023-04-07T06:48:58;100370.19;;;4.94;100.00
19748;BME280;10032;51.386;12.516;2023-04-07T06:51:23;100365.22;;;4.98;100.00
19748;BME280;10032;51.386;12.516;2023-04-07T06:53:50;100375.94;;;5.17;100.00
19748;BME280;10032;51.386;12.516;2023-04-07T06:56:16;100374.25;;;5.29;100.00
19748;BME280;10032;51.386;12.516;2023-04-07T06:58:41;100370.88;;;5.53;100.00
19748;BME280;10032;51.386;12.516;2023-04-07T07:01:07;100368.09;;;5.79;100.00
19748;BME280;10032;51.386;12.516;2023-04-07T07:03:32;100362.25;;;6.02;100.00
19748;BME280;10032;51.386;12.516;2023-04-07T07:05:58;100371.09;;;6.09;100.00
19748;BME280;10032;51.386;12.516;2023-04-07T07:08:25;100371.25;;;6.20;100.00
19748;BME280;10032;51.386;12.516;2023-04-07T07:10:51;100358.44;;;6.47;100.00
19748;BME280;10032;51.386;12.516;2023-04-07T07:13:22;100361.41;;;6.63;100.00
19748;BME280;10032;51.386;12.516;2023-04-07T07:15:48;100366.13;;;6.68;100.00
19748;BME280;10032;51.386;12.516;2023-04-07T07:18:13;100366.81;;;6.88;100.00
19748;BME280;10032;51.386;12.516;2023-04-07T07:20:39;100372.59;;;7.09;100.00
19748;BME280;10032;51.386;12.516;2023-04-07T07:23:04;100372.97;;;7.37;100.00
19748;BME280;10032;51.386;12.516;2023-04-07T07:25:30;100369.44;;;7.55;100.00
19748;BME280;10032;51.386;12.516;2023-04-07T07:27:55;100369.94;;;7.81;100.00
19748;BME280;10032;51.386;12.516;2023-04-07T07:30:22;100370.19;;;8.09;100.00
19748;BME280;10032;51.386;12.516;2023-04-07T07:32:48;100364.72;;;8.45;100.00
19748;BME280;10032;51.386;12.516;2023-04-07T07:35:14;100373.94;;;8.67;100.00
19748;BME280;10032;51.386;12.516;2023-04-07T07:37:40;100375.25;;;8.76;100.00
19748;BME280;10032;51.386;12.516;2023-04-07T07:40:06;100384.56;;;8.80;100.00
19748;BME280;10032;51.386;12.516;2023-04-07T07:42:32;100381.28;;;9.13;100.00
19748;BME280;10032;51.386;12.516;2023-04-07T07:44:58;100382.56;;;9.10;100.00
19748;BME280;10032;51.386;12.516;2023-04-07T07:47:24;100377.66;;;9.30;100.00
19748;BME280;10032;51.386;12.516;2023-04-07T07:49:50;100385.16;;;9.51;100.00
19748;BME280;10032;51.386;12.516;2023-04-07T07:52:15;100385.41;;;9.15;100.00
19748;BME280;10032;51.386;12.516;2023-04-07T07:54:41;100391.41;;;9.06;100.00
19748;BME280;10032;51.386;12.516;2023-04-07T07:57:06;100386.22;;;9.16;100.00
19748;BME280;10032;51.386;12.516;2023-04-07T07:59:32;100396.09;;;9.10;100.00
19748;BME280;10032;51.386;12.516;2023-04-07T08:01:57;100385.41;;;9.15;100.00
19748;BME280;10032;51.386;12.516;2023-04-07T08:04:23;100394.09;;;9.40;100.00
19748;BME280;10032;51.386;12.516;2023-04-07T08:06:49;100391.03;;;9.60;100.00
19748;BME280;10032;51.386;12.516;2023-04-07T08:09:16;100389.59;;;9.80;99.21
19748;BME280;10032;51.386;12.516;2023-04-07T08:11:41;100390.63;;;9.91;100.00
19748;BME280;10032;51.386;12.516;2023-04-07T08:14:07;100390.78;;;9.84;97.28
19748;BME280;10032;51.386;12.516;2023-04-07T08:16:32;100393.28;;;10.02;97.08
19748;BME280;10032;51.386;12.516;2023-04-07T08:18:58;100391.06;;;9.99;92.52
19748;BME280;10032;51.386;12.516;2023-04-07T08:21:23;100397.31;;;10.11;90.55
19748;BME280;10032;51.386;12.516;2023-04-07T08:23:52;100399.41;;;10.09;89.91
19748;BME280;10032;51.386;12.516;2023-04-07T08:26:18;100402.84;;;10.05;89.76
19748;BME280;10032;51.386;12.516;2023-04-07T08:28:43;100404.13;;;10.14;87.94
19748;BME280;10032;51.386;12.516;2023-04-07T08:31:09;100405.25;;;10.29;85.80
19748;BME280;10032;51.386;12.516;2023-04-07T08:33:35;100404.81;;;10.49;87.71
19748;BME280;10032;51.386;12.516;2023-04-07T08:36:00;100408.28;;;10.61;84.61
19748;BME280;10032;51.386;12.516;2023-04-07T08:38:25;100402.56;;;10.74;83.50
19748;BME280;10032;51.386;12.516;2023-04-07T08:40:57;100414.38;;;10.84;84.39
19748;BME280;10032;51.386;12.516;2023-04-07T08:43:25;100398.78;;;11.08;84.96
19748;BME280;10032;51.386;12.516;2023-04-07T08:45:54;100398.97;;;11.01;81.92
19748;BME280;10032;51.386;12.516;2023-04-07T08:48:22;100399.03;;;11.23;80.24
19748;BME280;10032;51.386;12.516;2023-04-07T08:50:50;100397.31;;;11.33;80.37
19748;BME280;10032;51.386;12.516;2023-04-07T08:53:22;100396.38;;;11.61;79.65
19748;BME280;10032;51.386;12.516;2023-04-07T08:55:48;100395.19;;;11.73;78.40
19748;BME280;10032;51.386;12.516;2023-04-07T08:58:14;100395.72;;;11.70;76.79
19748;BME280;10032;51.386;12.516;2023-04-07T09:00:42;100396.72;;;11.64;77.59
19748;BME280;10032;51.386;12.516;2023-04-07T09:03:10;100403.09;;;11.75;76.65
19748;BME280;10032;51.386;12.516;2023-04-07T09:05:36;100401.84;;;11.82;74.77
19748;BME280;10032;51.386;12.516;2023-04-07T09:08:03;100401.66;;;12.10;75.45
19748;BME280;10032;51.386;12.516;2023-04-07T09:10:28;100409.03;;;12.36;70.05
19748;BME280;10032;51.386;12.516;2023-04-07T09:12:54;100405.28;;;12.42;71.47
19748;BME280;10032;51.386;12.516;2023-04-07T09:15:20;100402.97;;;12.51;70.62
19748;BME280;10032;51.386;12.516;2023-04-07T09:17:46;100403.69;;;12.46;66.39
19748;BME280;10032;51.386;12.516;2023-04-07T09:20:12;100401.66;;;12.58;69.80
19748;BME280;10032;51.386;12.516;2023-04-07T09:22:42;100402.47;;;12.85;69.64
19748;BME280;10032;51.386;12.516;2023-04-07T09:25:18;100399.91;;;13.00;71.15
19748;BME280;10032;51.386;12.516;2023-04-07T09:27:58;100409.22;;;12.78;62.70
19748;BME280;10032;51.386;12.516;2023-04-07T09:30:25;100409.44;;;12.50;60.99
19748;BME280;10032;51.386;12.516;2023-04-07T09:32:50;100400.94;;;12.41;57.17
19748;BME280;10032;51.386;12.516;2023-04-07T09:35:16;100401.66;;;12.58;61.29
19748;BME280;10032;51.386;12.516;2023-04-07T09:37:41;100396.63;;;12.45;58.16
19748;BME280;10032;51.386;12.516;2023-04-07T09:40:07;100397.88;;;12.59;59.92
19748;BME280;10032;51.386;12.516;2023-04-07T09:42:33;100395.97;;;12.86;60.16
19748;BME280;10032;51.386;12.516;2023-04-07T09:45:01;100392.94;;;12.83;58.56
19748;BME280;10032;51.386;12.516;2023-04-07T09:47:31;100394.34;;;12.90;54.80
19748;BME280;10032;51.386;12.516;2023-04-07T09:49:57;100392.41;;;13.12;57.48
19748;BME280;10032;51.386;12.516;2023-04-07T09:52:48;100379.41;;;13.19;56.64
19748;BME280;10032;51.386;12.516;2023-04-07T09:55:15;100380.88;;;13.37;56.47
19748;BME280;10032;51.386;12.516;2023-04-07T09:57:42;100381.44;;;13.39;52.80
19748;BME280;10032;51.386;12.516;2023-04-07T10:00:08;100379.53;;;13.39;54.15
19748;BME280;10032;51.386;12.516;2023-04-07T10:02:35;100380.06;;;13.36;52.76
19748;BME280;10032;51.386;12.516;2023-04-07T10:05:01;100379.03;;;13.47;54.28
19748;BME280;10032;51.386;12.516;2023-04-07T10:07:27;100380.81;;;13.68;52.30
19748;BME280;10032;51.386;12.516;2023-04-07T10:09:52;100390.78;;;13.53;50.81
19748;BME280;10032;51.386;12.516;2023-04-07T10:12:18;100380.44;;;13.55;51.43
19748;BME280;10032;51.386;12.516;2023-04-07T10:14:44;100385.69;;;13.66;52.15
19748;BME280;10032;51.386;12.516;2023-04-07T10:17:13;100377.59;;;13.76;51.30
19748;BME280;10032;51.386;12.516;2023-04-07T10:19:44;100384.16;;;13.80;50.09
19748;BME280;10032;51.386;12.516;2023-04-07T10:22:12;100374.25;;;13.64;50.22
19748;BME280;10032;51.386;12.516;2023-04-07T10:27:16;100377.47;;;13.56;48.35
19748;BME280;10032;51.386;12.516;2023-04-07T10:29:44;100387.44;;;13.87;50.46
19748;BME280;10032;51.386;12.516;2023-04-07T10:32:10;100386.00;;;13.75;48.28
19748;BME280;10032;51.386;12.516;2023-04-07T10:37:21;100384.16;;;13.90;48.60
19748;BME280;10032;51.386;12.516;2023-04-07T10:39:47;100384.25;;;14.10;49.05
19748;BME280;10032;51.386;12.516;2023-04-07T10:45:07;100375.75;;;13.92;47.31
19748;BME280;10032;51.386;12.516;2023-04-07T10:50:23;100384.16;;;13.85;46.70
19748;BME280;10032;51.386;12.516;2023-04-07T10:53:07;100388.81;;;13.90;45.59
19748;BME280;10032;51.386;12.516;2023-04-07T10:55:42;100393.19;;;13.91;46.03
19748;BME280;10032;51.386;12.516;2023-04-07T10:58:27;100384.81;;;14.07;46.07
19748;BME280;10032;51.386;12.516;2023-04-07T11:03:22;100379.53;;;14.52;45.71
19748;BME280;10032;51.386;12.516;2023-04-07T11:05:48;100376.16;;;14.20;44.80
19748;BME280;10032;51.386;12.516;2023-04-07T11:08:13;100381.00;;;14.08;44.57
19748;BME280;10032;51.386;12.516;2023-04-07T11:10:39;100383.25;;;14.26;45.71
19748;BME280;10032;51.386;12.516;2023-04-07T11:13:07;100376.53;;;14.49;44.54
19748;BME280;10032;51.386;12.516;2023-04-07T11:15:34;100381.13;;;14.48;43.56
19748;BME280;10032;51.386;12.516;2023-04-07T11:18:16;100377.38;;;14.59;44.11
19748;BME280;10032;51.386;12.516;2023-04-07T11:20:47;100370.84;;;14.75;44.52
19748;BME280;10032;51.386;12.516;2023-04-07T11:23:14;100378.75;;;15.07;44.63
19748;BME280;10032;51.386;12.516;2023-04-07T11:25:45;100371.41;;;15.02;42.91
19748;BME280;10032;51.386;12.516;2023-04-07T11:28:11;100374.66;;;14.89;42.74
19748;BME280;10032;51.386;12.516;2023-04-07T11:30:38;100372.50;;;14.96;43.80
19748;BME280;10032;51.386;12.516;2023-04-07T11:33:04;100374.94;;;14.98;42.78
19748;BME280;10032;51.386;12.516;2023-04-07T11:35:30;100369.75;;;15.01;43.11
19748;BME280;10032;51.386;12.516;2023-04-07T11:37:58;100381.22;;;15.08;41.89
19748;BME280;10032;51.386;12.516;2023-04-07T11:40:35;100376.28;;;14.85;42.01
19748;BME280;10032;51.386;12.516;2023-04-07T11:45:42;100372.47;;;15.01;41.45
19748;BME280;10032;51.386;12.516;2023-04-07T11:48:28;100367.00;;;15.16;41.89
19748;BME280;10032;51.386;12.516;2023-04-07T11:50:53;100373.56;;;14.95;41.80
19748;BME280;10032;51.386;12.516;2023-04-07T11:53:27;100364.28;;;14.61;42.31
19748;BME280;10032;51.386;12.516;2023-04-07T11:56:09;100369.78;;;14.96;42.84
19748;BME280;10032;51.386;12.516;2023-04-07T11:58:36;100369.47;;;14.93;42.37
19748;BME280;10032;51.386;12.516;2023-04-07T12:01:04;100371.94;;;14.84;42.47
19748;BME280;10032;51.386;12.516;2023-04-07T12:03:34;100366.75;;;14.93;42.72
19748;BME280;10032;51.386;12.516;2023-04-07T12:06:00;100378.22;;;15.00;42.24
19748;BME280;10032;51.386;12.516;2023-04-07T12:08:40;100377.38;;;14.59;41.43
19748;BME280;10032;51.386;12.516;2023-04-07T12:11:05;100378.47;;;14.68;41.72
19748;BME280;10032;51.386;12.516;2023-04-07T12:13:32;100376.28;;;14.90;42.31
19748;BME280;10032;51.386;12.516;2023-04-07T12:15:58;100371.69;;;15.11;41.48
19748;BME280;10032;51.386;12.516;2023-04-07T12:18:23;100382.06;;;15.34;42.35
19748;BME280;10032;51.386;12.516;2023-04-07T12:20:49;100378.19;;;15.30;40.95
19748;BME280;10032;51.386;12.516;2023-04-07T12:23:15;100379.31;;;15.39;41.49
19748;BME280;10032;51.386;12.516;2023-04-07T12:25:41;100370.50;;;15.72;41.51
19748;BME280;10032;51.386;12.516;2023-04-07T12:28:06;100373.84;;;15.54;40.57
19748;BME280;10032;51.386;12.516;2023-04-07T12:30:31;100368.13;;;15.50;40.51
19748;BME280;10032;51.386;12.516;2023-04-07T12:32:57;100359.53;;;15.87;41.17
19748;BME280;10032;51.386;12.516;2023-04-07T12:35:22;100361.16;;;15.83;40.84
19748;BME280;10032;51.386;12.516;2023-04-07T12:37:48;100347.69;;;16.06;40.74
19748;BME280;10032;51.386;12.516;2023-04-07T12:40:14;100364.22;;;15.81;40.16
19748;BME280;10032;51.386;12.516;2023-04-07T12:42:40;100363.66;;;15.69;40.76
19748;BME280;10032;51.386;12.516;2023-04-07T12:45:06;100365.28;;;15.75;40.79
19748;BME280;10032;51.386;12.516;2023-04-07T12:47:32;100363.13;;;15.72;40.24
19748;BME280;10032;51.386;12.516;2023-04-07T12:49:58;100360.69;;;15.61;40.67
19748;BME280;10032;51.386;12.516;2023-04-07T12:52:23;100350.59;;;15.66;40.73
19748;BME280;10032;51.386;12.516;2023-04-07T12:54:49;100355.50;;;15.59;40.72
19748;BME280;10032;51.386;12.516;2023-04-07T12:57:14;100366.50;;;15.44;40.79
19748;BME280;10032;51.386;12.516;2023-04-07T12:59:40;100354.97;;;15.52;40.49
19748;BME280;10032;51.386;12.516;2023-04-07T13:02:06;100359.91;;;15.55;40.77
19748;BME280;10032;51.386;12.516;2023-04-07T13:04:32;100361.03;;;15.44;40.49